• Join FlightAware (Why Join?)
  • Login
  • US Flag 
05:03PM EDT


 

Airport Tracker/Info


-or-


 

Live Flight TrackerFlight Track Log ✈ AWI3621 ✈ 17-Jun-2013 ✈ KPHL - KCLE

Flight Track Log - Related Links

Times and Time Zones

All times are in EDT time to prevent confusion due to time zone crossing. See the AWI3621 flight status page for this flight to view local times or setup timezone preferences in your user account.

Time Position Orientation Groundspeed Altitude Reporting Facility
EDT Latitude Longitude Course Direction KTS MPH feet Rate Location/Type
07:04PM 39.8667 -75.2833 247° West 167 192 800  Level Philadelphia TRACON
07:05PM 39.8500 -75.3333 247° West 176 203 2,100 1,800 Climbing Philadelphia TRACON
07:06PM 39.8333 -75.4000 252° West 207 238 4,100 1,860 Climbing Philadelphia TRACON
07:07PM 39.8833 -75.4500 323° Northwest 234 269 5,700 1,800 Climbing Philadelphia TRACON
07:08PM 39.9500 -75.4667 349° North 264 304 7,700 1,740 Climbing Philadelphia TRACON
07:09PM 39.9839 -75.4819 341° North 270 311 8,400 1,920 Climbing New York Center
07:10PM 40.0581 -75.5089 344° North 281 323 10,500 1,440 Climbing New York Center
07:11PM 40.1444 -75.5364 346° North 300 345 11,300 1,200 Climbing New York Center
07:12PM 40.2322 -75.5806 339° North 327 376 13,000 1,620 Climbing New York Center
07:13PM 40.2953 -75.6692 313° West 334 384 14,600 1,560 Climbing New York Center
07:14PM 40.3558 -75.7633 310° West 334 384 16,100 1,380 Climbing New York Center
07:15PM 40.4128 -75.8467 312° West 339 390 17,400 1,200 Climbing New York Center
07:16PM 40.4494 -75.9611 293° West 350 403 18,600 780 Climbing New York Center
07:17PM 40.4731 -76.0886 284° West 350 403 19,000 180 Climbing New York Center
07:18PM 40.4956 -76.2347 281° West 371 427 19,000 420 Level New York Center
07:19PM 40.5114 -76.3425 281° West 377 434 19,900 1,140 Climbing New York Center
07:20PM 40.5353 -76.4975 282° West 372 428 21,300 1,200 Climbing New York Center
07:21PM 40.5581 -76.6250 283° West 367 422 22,300 840 Climbing New York Center
07:22PM 40.5897 -76.7453 289° West 361 415 23,000 660 Climbing New York Center
07:23PM 40.6231 -76.8686 290° West 355 409 23,700 1,080 Climbing New York Center
07:24PM 40.6525 -76.9833 289° West 349 402 25,200 840 Climbing New York Center
07:25PM 40.6839 -77.0983 290° West 344 396 25,400 360 Climbing New York Center
07:26PM 40.7150 -77.2164 289° West 339 390 26,000 240 Climbing New York Center
07:27PM 40.7483 -77.3319 291° West 339 390 26,000  Level New York Center
07:28PM 40.7789 -77.4528 289° West 339 390 26,000  Level New York Center
07:29PM 40.8114 -77.5792 289° West 356 410 26,000  Level New York Center
07:30PM 40.8436 -77.7058 289° West 361 415 26,000  Level New York Center
07:31PM 40.8764 -77.8425 288° West 359 413 26,000  Level Cleveland Center
07:32PM 40.9131 -77.9839 289° West 365 420 26,000  Level Cleveland Center
07:33PM 40.9347 -78.1150 282° West 371 427 26,000  Level Cleveland Center
07:34PM 40.9583 -78.2350 285° West 377 434 26,000  Level Cleveland Center
07:35PM 40.9797 -78.3717 282° West 377 434 26,000  Level Cleveland Center
07:36PM 41.0031 -78.5031 283° West 377 434 26,000  Level Cleveland Center
07:37PM 41.0325 -78.6369 286° West 371 427 26,000  Level Cleveland Center
07:38PM 41.0575 -78.7683 284° West 371 427 26,000  Level Cleveland Center
07:39PM 41.0847 -78.9028 285° West 371 427 26,000  Level Cleveland Center
07:40PM 41.1136 -79.0369 286° West 371 427 26,000  Level Cleveland Center
07:41PM 41.1383 -79.1742 283° West 376 433 26,000 -840 Level Cleveland Center
07:42PM 41.1669 -79.3117 285° West 382 440 24,400 -1,020 Descending Cleveland Center
07:43PM 41.1936 -79.4492 284° West 382 440 24,000 -240 Descending Cleveland Center
07:44PM 41.2219 -79.5839 286° West 382 440 24,000  Level Cleveland Center
07:45PM 41.2458 -79.7217 283° West 382 440 24,000  Level Cleveland Center
07:46PM 41.2739 -79.8592 285° West 382 440 24,000  Level Cleveland Center
07:48PM 41.3253 -80.1269 284° West 377 434 24,000 -480 Level Cleveland Center
07:49PM 41.3508 -80.2594 284° West 377 434 22,600 -1,800 Descending Cleveland Center
07:50PM 41.3761 -80.4061 283° West 377 434 20,500 -2,100 Descending Cleveland Center
07:51PM 41.4014 -80.5333 285° West 367 422 18,500 -2,040 Descending Cleveland Center
07:52PM 41.4242 -80.6522 284° West 348 400 16,500 -2,100 Descending Cleveland Center
07:53PM 41.4469 -80.7742 284° West 348 400 14,400 -2,100 Descending Cleveland Center
07:54PM 41.4675 -80.8936 283° West 338 389 12,400 -2,100 Descending Cleveland Center
07:54PM 41.4758 -80.9517 281° West 309 356 11,300 -2,040 Descending Cleveland Center
07:55PM 41.4881 -81.0044 287° West 326 375 10,400 -1,320 Descending Cleveland Center
07:55PM 41.4983 -81.0628 283° West 311 358 10,000 -420 Descending Cleveland Center
07:56PM 41.5083 -81.1211 283° West 315 362 10,000  Level Cleveland Center
07:56PM 41.5186 -81.1822 283° West 323 372 10,000 -540 Level Cleveland Center
07:57PM 41.5244 -81.2294 279° West 313 360 9,500 -1,500 Descending Cleveland Center
07:57PM 41.5306 -81.2822 279° West 271 312 8,500 -1,920 Descending Cleveland Center
07:58PM 41.5386 -81.3294 283° West 291 335 7,600 -1,500 Descending Cleveland Center
07:58PM 41.5464 -81.3822 281° West 273 314 7,000 -600 Descending Cleveland Center
07:59PM 41.5544 -81.4267 284° West 275 316 7,000  Level Cleveland Center
07:59PM 41.5644 -81.4850 283° West 270 311 7,000  Level Cleveland Center
08:00PM 41.5706 -81.5211 283° West 270 311 7,000 -420 Level Cleveland Center
08:00PM 41.5658 -81.5656 262° West 211 243 6,600 -840 Descending Cleveland Center
08:01PM 41.5594 -81.5961 254° West 229 264 6,200 -600 Descending Cleveland Center
08:01PM 41.5508 -81.6347 253° West 182 209 6,000 -840 Descending Cleveland Center
08:02PM 41.5381 -81.6539 228° Southwest 190 219 5,400 -1,500 Descending Cleveland Center
08:02PM 41.5189 -81.6842 230° Southwest 168 193 4,500 -1,440 Descending Cleveland Center
08:03PM 41.5106 -81.6978 231° Southwest 178 205 4,000 -1,500 Descending Cleveland Center
08:03PM 41.4894 -81.7308 230° Southwest 167 192 3,000 -1,680 Descending Cleveland Center